Time;durP1;ratioP1;P1;durP2;ratioP2;P2;SDS_P1;SDS_P2;PMS_P1;PMS_P2;Temp;Humidity;BMP_temperature;BMP_pressure;BME280_temperature;BME280_humidity;BME280_pressure;Samples;Min_cycle;Max_cycle;Signal;HPM_P1;HPM_P2
2022/03/31 00:01:30;;;;;;;15.90;9.75;;;6.20;99.90;;;;;;4973845;28;20034;-80
2022/03/31 00:03:56;;;;;;;14.73;8.90;;;6.20;99.90;;;;;;5006969;28;20030;-80
2022/03/31 00:06:21;;;;;;;16.50;9.15;;;6.10;99.90;;;;;;4991563;28;20037;-80
2022/03/31 00:08:47;;;;;;;17.10;8.93;;;6.20;99.90;;;;;;4977240;28;20041;-80
2022/03/31 00:11:12;;;;;;;15.80;8.73;;;6.20;99.90;;;;;;4980750;28;20030;-80
2022/03/31 00:13:38;;;;;;;18.77;9.48;;;6.20;99.90;;;;;;4974744;28;20040;-80
2022/03/31 00:16:04;;;;;;;17.17;7.82;;;6.20;99.90;;;;;;4977092;28;20029;-80
2022/03/31 00:18:29;;;;;;;15.77;9.30;;;6.10;99.90;;;;;;4997085;28;20030;-80
2022/03/31 00:20:55;;;;;;;17.90;9.65;;;6.10;99.90;;;;;;5009864;28;20075;-80
2022/03/31 00:23:21;;;;;;;13.40;8.38;;;6.20;99.90;;;;;;4975712;28;20482;-80
2022/03/31 00:25:48;;;;;;;17.15;8.70;;;6.20;99.90;;;;;;4975340;28;20441;-80
2022/03/31 00:28:14;;;;;;;21.63;9.65;;;6.20;99.90;;;;;;4991535;28;20030;-81
2022/03/31 00:30:39;;;;;;;14.52;8.93;;;6.10;99.90;;;;;;4989447;28;20038;-80
2022/03/31 00:33:05;;;;;;;13.32;9.35;;;6.10;99.90;;;;;;4996179;28;20041;-80
2022/03/31 00:35:31;;;;;;;16.08;8.95;;;6.10;99.90;;;;;;4989400;28;20034;-80
2022/03/31 00:37:56;;;;;;;18.77;9.20;;;6.00;99.90;;;;;;4993578;28;20060;-80
2022/03/31 00:40:22;;;;;;;18.55;9.52;;;6.00;99.90;;;;;;4981964;28;20663;-80
2022/03/31 00:42:51;;;;;;;24.58;9.45;;;6.00;99.90;;;;;;4991404;28;20037;-80
2022/03/31 00:45:32;;;;;;;14.80;8.93;;;6.10;99.90;;;;;;5007292;28;20033;-80
2022/03/31 00:47:57;;;;;;;18.80;9.15;;;6.00;99.90;;;;;;4975007;28;20543;-80
2022/03/31 00:50:23;;;;;;;15.85;9.45;;;6.00;99.90;;;;;;5003082;28;20026;-80
2022/03/31 00:52:49;;;;;;;15.55;9.05;;;6.00;99.90;;;;;;4982693;28;20029;-80
2022/03/31 00:55:15;;;;;;;15.48;8.70;;;6.00;99.90;;;;;;5005338;28;20183;-80
2022/03/31 00:57:42;;;;;;;21.20;10.13;;;5.90;99.90;;;;;;4973800;28;20038;-80
2022/03/31 01:00:08;;;;;;;17.88;9.55;;;6.00;99.90;;;;;;4974494;28;20069;-80
2022/03/31 01:02:35;;;;;;;18.13;10.15;;;6.00;99.90;;;;;;4974998;28;20124;-80
2022/03/31 01:05:01;;;;;;;15.35;9.60;;;6.00;99.90;;;;;;4993972;28;20401;-80
2022/03/31 01:07:27;;;;;;;26.20;10.80;;;5.90;99.90;;;;;;4972456;28;20374;-80
2022/03/31 01:09:53;;;;;;;17.92;10.52;;;5.90;99.90;;;;;;4977267;28;20053;-80
2022/03/31 01:12:19;;;;;;;16.90;10.38;;;5.80;99.90;;;;;;4990587;28;20537;-80
2022/03/31 01:14:45;;;;;;;20.73;10.50;;;5.80;99.90;;;;;;4992935;28;20060;-80
2022/03/31 01:17:10;;;;;;;19.23;11.07;;;5.80;99.90;;;;;;4971690;28;20029;-80
2022/03/31 01:19:36;;;;;;;15.70;10.18;;;5.80;99.90;;;;;;4994642;28;20037;-80
2022/03/31 01:22:02;;;;;;;24.25;10.73;;;5.70;99.90;;;;;;4988775;28;20029;-80
2022/03/31 01:24:28;;;;;;;18.60;10.10;;;5.70;99.90;;;;;;4987918;28;20545;-80
2022/03/31 01:26:54;;;;;;;22.17;10.75;;;5.70;99.90;;;;;;4993142;28;20127;-80
2022/03/31 01:29:21;;;;;;;19.65;11.07;;;5.70;99.90;;;;;;5003809;28;20187;-80
2022/03/31 01:31:46;;;;;;;19.63;10.88;;;5.70;99.90;;;;;;4974990;28;20026;-80
2022/03/31 01:34:12;;;;;;;19.10;10.50;;;5.70;99.90;;;;;;4989469;28;20030;-81
2022/03/31 01:36:38;;;;;;;18.52;10.20;;;5.60;99.90;;;;;;4980804;28;20063;-80
2022/03/31 01:39:04;;;;;;;15.52;9.85;;;5.70;99.90;;;;;;4989288;28;20061;-80
2022/03/31 01:41:30;;;;;;;18.45;10.50;;;5.70;99.90;;;;;;5005751;28;20038;-81
2022/03/31 01:43:55;;;;;;;17.40;10.55;;;5.70;99.90;;;;;;4974831;28;20425;-80
2022/03/31 01:46:21;;;;;;;17.00;9.73;;;5.70;99.90;;;;;;4974259;28;20034;-80
2022/03/31 01:48:46;;;;;;;22.40;10.82;;;5.70;99.90;;;;;;4986727;28;20038;-80
2022/03/31 01:51:12;;;;;;;15.75;11.15;;;5.70;99.90;;;;;;4984815;28;20029;-80
2022/03/31 01:53:38;;;;;;;16.13;11.35;;;5.70;99.90;;;;;;4977148;28;20535;-80
2022/03/31 01:56:04;;;;;;;22.30;12.00;;;5.70;99.90;;;;;;4996594;28;20373;-80
2022/03/31 01:58:30;;;;;;;22.23;11.45;;;5.70;99.90;;;;;;5003101;28;20120;-80
2022/03/31 02:00:57;;;;;;;19.42;11.07;;;5.70;99.90;;;;;;4990718;28;20077;-80
2022/03/31 02:03:23;;;;;;;16.30;11.15;;;5.70;99.90;;;;;;4994118;28;20034;-80
2022/03/31 02:05:49;;;;;;;17.85;10.75;;;5.60;99.90;;;;;;4975237;28;20516;-80
2022/03/31 02:08:14;;;;;;;20.88;11.43;;;5.60;99.90;;;;;;4995919;28;20018;-79
2022/03/31 02:10:41;;;;;;;23.98;12.90;;;5.60;99.90;;;;;;4978029;28;20124;-79
2022/03/31 02:13:08;;;;;;;21.85;11.93;;;5.60;99.90;;;;;;5010857;28;20032;-80
2022/03/31 02:15:34;;;;;;;23.15;11.98;;;5.60;99.90;;;;;;4982459;28;20037;-80
2022/03/31 02:18:02;;;;;;;18.83;12.13;;;5.60;99.90;;;;;;4996287;28;20057;-80
2022/03/31 02:20:28;;;;;;;23.00;12.50;;;5.60;99.90;;;;;;4976972;28;20046;-79
2022/03/31 02:22:54;;;;;;;26.35;12.23;;;5.50;99.90;;;;;;4975832;28;20038;-80
2022/03/31 02:25:20;;;;;;;20.10;12.00;;;5.50;99.90;;;;;;4982849;28;20454;-80
2022/03/31 02:27:52;;;;;;;22.65;11.65;;;5.50;99.90;;;;;;4992454;28;20165;-80
2022/03/31 02:30:18;;;;;;;23.98;12.57;;;5.50;99.90;;;;;;4974130;28;20034;-80
2022/03/31 02:32:44;;;;;;;23.13;13.57;;;5.50;99.90;;;;;;4981836;28;20400;-80
2022/03/31 02:35:10;;;;;;;24.58;12.55;;;5.50;99.90;;;;;;5011103;28;20041;-80
2022/03/31 02:37:35;;;;;;;17.17;10.43;;;5.50;99.90;;;;;;4993242;28;20379;-80
2022/03/31 02:40:01;;;;;;;19.48;13.13;;;5.50;99.90;;;;;;5006969;28;20393;-80
2022/03/31 02:42:27;;;;;;;17.58;12.13;;;5.50;99.90;;;;;;4994616;28;20548;-80
2022/03/31 02:44:52;;;;;;;21.15;12.25;;;5.40;99.90;;;;;;5014800;28;20467;-79
2022/03/31 02:47:18;;;;;;;18.33;12.90;;;5.40;99.90;;;;;;4973556;28;20662;-79
2022/03/31 02:49:44;;;;;;;23.05;12.70;;;5.50;99.90;;;;;;4980563;28;20061;-80
2022/03/31 02:52:09;;;;;;;20.77;11.80;;;5.40;99.90;;;;;;5009592;28;20558;-80
2022/03/31 02:57:19;;;;;;;20.45;13.23;;;5.50;99.90;;;;;;4992525;28;20064;-79
2022/03/31 02:59:45;;;;;;;18.27;11.90;;;5.40;99.90;;;;;;4982826;28;20061;-79
2022/03/31 03:02:10;;;;;;;19.83;12.55;;;5.40;99.90;;;;;;4977653;28;20143;-79
2022/03/31 03:04:36;;;;;;;22.42;12.40;;;5.40;99.90;;;;;;4993127;28;20268;-79
2022/03/31 03:07:02;;;;;;;18.27;12.68;;;5.50;99.90;;;;;;4974951;28;20026;-79
2022/03/31 03:09:27;;;;;;;21.30;12.10;;;5.40;99.90;;;;;;4989216;28;20121;-79
2022/03/31 03:11:53;;;;;;;22.00;12.48;;;5.30;99.90;;;;;;4970264;28;20112;-79
2022/03/31 03:14:18;;;;;;;22.60;12.18;;;5.30;99.90;;;;;;4977730;28;20038;-80
2022/03/31 03:16:44;;;;;;;18.90;11.77;;;5.20;99.90;;;;;;4976540;28;20045;-80
2022/03/31 03:19:10;;;;;;;24.58;11.55;;;5.20;99.90;;;;;;4974333;28;20125;-80
2022/03/31 03:21:36;;;;;;;19.83;13.45;;;5.30;99.90;;;;;;4977779;28;20052;-80
2022/03/31 03:24:02;;;;;;;18.05;12.05;;;5.30;99.90;;;;;;4993032;28;20058;-80
2022/03/31 03:26:28;;;;;;;16.52;12.18;;;5.30;99.90;;;;;;4972623;28;20064;-80
2022/03/31 03:28:54;;;;;;;24.48;14.00;;;5.30;99.90;;;;;;4975025;28;20499;-80
2022/03/31 03:31:20;;;;;;;20.80;13.68;;;5.30;99.90;;;;;;4976465;28;20041;-80
2022/03/31 03:33:45;;;;;;;28.25;12.95;;;5.30;99.90;;;;;;4976922;28;20121;-80
2022/03/31 03:36:12;;;;;;;20.00;11.35;;;5.30;99.90;;;;;;4989370;28;20124;-80
2022/03/31 03:38:40;;;;;;;22.45;11.98;;;5.40;99.90;;;;;;4993047;28;20041;-80
2022/03/31 03:41:06;;;;;;;17.83;12.65;;;5.50;99.90;;;;;;4992337;28;20037;-80
2022/03/31 03:43:32;;;;;;;21.65;11.70;;;5.60;99.90;;;;;;4987451;28;20044;-80
2022/03/31 03:45:57;;;;;;;20.25;13.23;;;5.40;99.90;;;;;;4976095;28;20045;-80
2022/03/31 03:48:23;;;;;;;20.65;11.93;;;5.60;99.90;;;;;;5008385;28;20034;-80
2022/03/31 03:50:48;;;;;;;20.42;12.98;;;5.60;99.90;;;;;;4994988;28;20040;-80
2022/03/31 03:53:14;;;;;;;15.93;11.98;;;5.70;99.90;;;;;;4977798;28;20477;-80
2022/03/31 03:55:40;;;;;;;24.98;14.10;;;5.70;99.90;;;;;;4994355;28;20038;-80
2022/03/31 03:58:05;;;;;;;26.23;14.45;;;5.50;99.90;;;;;;4979878;28;20033;-80
2022/03/31 04:00:31;;;;;;;21.48;14.18;;;5.50;99.90;;;;;;4992068;28;20030;-79
2022/03/31 04:02:57;;;;;;;25.55;14.05;;;5.40;99.90;;;;;;5007069;28;20033;-80
2022/03/31 04:05:23;;;;;;;17.65;10.68;;;5.30;99.90;;;;;;5006019;28;20030;-80
2022/03/31 04:07:48;;;;;;;20.08;14.20;;;5.40;99.90;;;;;;4992450;28;20355;-80
2022/03/31 04:10:14;;;;;;;25.58;14.82;;;5.40;99.90;;;;;;4988108;28;20115;-80
2022/03/31 04:12:40;;;;;;;25.20;15.13;;;5.30;99.90;;;;;;4975664;28;20037;-80
2022/03/31 04:15:06;;;;;;;29.20;15.45;;;5.30;99.90;;;;;;4992199;28;20040;-79
2022/03/31 04:17:32;;;;;;;26.92;15.68;;;5.20;99.90;;;;;;4975271;28;20064;-80
2022/03/31 04:19:58;;;;;;;18.17;12.13;;;5.20;99.90;;;;;;4976489;28;20037;-80
2022/03/31 04:22:23;;;;;;;25.25;14.38;;;5.20;99.90;;;;;;4992764;28;20029;-79
2022/03/31 04:24:49;;;;;;;26.17;16.42;;;5.20;99.90;;;;;;4973028;28;20030;-80
2022/03/31 04:27:14;;;;;;;30.80;15.98;;;5.30;99.90;;;;;;4974383;28;20026;-80
2022/03/31 04:29:40;;;;;;;30.83;17.00;;;5.20;99.90;;;;;;5006138;28;20049;-80
2022/03/31 04:32:06;;;;;;;23.80;16.15;;;5.20;99.90;;;;;;4973194;28;20112;-80
2022/03/31 04:34:32;;;;;;;27.90;15.45;;;5.20;99.90;;;;;;4987061;28;20041;-80
2022/03/31 04:36:58;;;;;;;18.20;11.73;;;5.20;99.90;;;;;;4975515;28;20018;-81
2022/03/31 04:39:23;;;;;;;19.95;12.07;;;5.30;99.90;;;;;;4973960;28;20028;-80
2022/03/31 04:41:49;;;;;;;21.45;12.43;;;5.40;99.90;;;;;;4969014;28;20033;-80
2022/03/31 04:44:14;;;;;;;18.20;10.18;;;5.40;99.90;;;;;;4973587;28;20042;-81
2022/03/31 04:46:40;;;;;;;17.38;11.15;;;5.50;99.90;;;;;;4993355;28;20113;-81
2022/03/31 04:49:06;;;;;;;26.00;13.85;;;5.40;99.90;;;;;;4978162;28;20050;-81
2022/03/31 04:51:31;;;;;;;21.23;11.35;;;5.50;99.90;;;;;;4991813;28;20030;-81
2022/03/31 04:53:57;;;;;;;17.45;9.02;;;5.40;99.90;;;;;;4979803;28;20030;-81
2022/03/31 04:56:22;;;;;;;18.77;10.65;;;5.50;99.90;;;;;;4994119;28;20361;-81
2022/03/31 04:58:48;;;;;;;19.23;10.63;;;5.50;99.90;;;;;;4995220;28;20396;-81
2022/03/31 05:01:13;;;;;;;18.83;11.82;;;5.50;99.90;;;;;;4988727;28;20096;-81
2022/03/31 05:03:39;;;;;;;16.88;8.63;;;5.40;99.90;;;;;;4975058;28;20072;-80
2022/03/31 05:06:05;;;;;;;18.65;9.98;;;5.50;99.90;;;;;;4973558;28;20200;-81
2022/03/31 05:08:31;;;;;;;22.55;13.38;;;5.70;99.90;;;;;;4976976;28;20054;-81
2022/03/31 05:10:56;;;;;;;16.60;10.00;;;5.50;99.90;;;;;;4975866;28;20425;-81
2022/03/31 05:13:22;;;;;;;24.13;11.68;;;5.50;99.90;;;;;;4990802;28;20033;-81
2022/03/31 05:15:47;;;;;;;15.10;6.82;;;5.50;99.90;;;;;;4975616;28;20117;-80
2022/03/31 05:18:13;;;;;;;20.42;8.75;;;5.60;99.90;;;;;;4991432;28;20123;-80
2022/03/31 05:20:39;;;;;;;20.38;10.48;;;5.60;99.90;;;;;;4991434;28;20208;-82
2022/03/31 05:23:05;;;;;;;21.00;11.05;;;5.50;99.90;;;;;;4969296;28;20081;-80
2022/03/31 05:25:30;;;;;;;17.60;9.70;;;5.60;99.90;;;;;;4973092;28;20034;-80
2022/03/31 05:27:58;;;;;;;20.48;10.35;;;5.50;99.90;;;;;;4990043;28;20074;-80
2022/03/31 05:30:24;;;;;;;24.80;11.70;;;5.50;99.90;;;;;;4975838;28;20482;-80
2022/03/31 05:32:51;;;;;;;21.38;10.63;;;5.40;99.90;;;;;;4992270;28;20075;-80
2022/03/31 05:35:18;;;;;;;22.23;12.32;;;5.40;99.90;;;;;;4977087;28;20034;-80
2022/03/31 05:37:44;;;;;;;22.50;12.63;;;5.30;99.90;;;;;;4989471;28;20040;-80
2022/03/31 05:40:10;;;;;;;25.38;13.13;;;5.30;99.90;;;;;;4993204;28;20125;-80
2022/03/31 05:42:36;;;;;;;24.52;13.68;;;5.30;99.90;;;;;;4995919;28;20619;-80
2022/03/31 05:45:02;;;;;;;25.88;14.45;;;5.30;99.90;;;;;;4981683;28;20029;-80
2022/03/31 05:47:27;;;;;;;26.30;13.23;;;5.30;99.90;;;;;;4993544;28;20121;-80
2022/03/31 05:49:53;;;;;;;27.42;13.45;;;5.30;99.90;;;;;;4979999;28;20140;-81
2022/03/31 05:52:19;;;;;;;30.02;14.50;;;5.20;99.90;;;;;;4978356;28;20057;-80
2022/03/31 05:54:45;;;;;;;27.13;15.02;;;5.30;99.90;;;;;;4994391;28;20417;-80
2022/03/31 05:57:10;;;;;;;25.08;14.30;;;5.20;99.90;;;;;;4978484;28;20030;-79
2022/03/31 05:59:36;;;;;;;27.63;15.48;;;5.20;99.90;;;;;;4993171;28;20111;-80
2022/03/31 06:02:02;;;;;;;26.92;15.40;;;5.30;99.90;;;;;;4992399;28;20489;-80
2022/03/31 06:04:28;;;;;;;30.40;14.98;;;5.30;99.90;;;;;;4977841;28;20029;-80
2022/03/31 06:06:53;;;;;;;30.73;14.30;;;5.30;99.90;;;;;;4977815;28;20040;-81
2022/03/31 06:09:19;;;;;;;30.20;15.32;;;5.30;99.90;;;;;;5009963;28;20110;-80
2022/03/31 06:11:44;;;;;;;31.45;15.07;;;5.30;99.90;;;;;;4978282;28;20427;-80
2022/03/31 06:14:10;;;;;;;27.27;15.77;;;5.30;99.90;;;;;;4976215;28;20049;-80
2022/03/31 06:16:36;;;;;;;27.27;14.95;;;5.30;99.90;;;;;;4995170;28;20524;-81
2022/03/31 06:19:01;;;;;;;29.65;15.30;;;5.30;99.90;;;;;;4981639;28;20095;-80
2022/03/31 06:21:27;;;;;;;30.83;15.80;;;5.40;99.90;;;;;;4974924;28;20052;-80
2022/03/31 06:23:52;;;;;;;30.88;16.15;;;5.40;99.90;;;;;;4982245;28;20029;-80
2022/03/31 06:26:18;;;;;;;31.65;16.92;;;5.40;99.90;;;;;;4970481;28;20054;-80
2022/03/31 06:28:43;;;;;;;32.35;16.77;;;5.40;99.90;;;;;;5008559;28;20088;-80
2022/03/31 06:31:09;;;;;;;30.17;16.65;;;5.40;99.90;;;;;;5002315;28;20038;-80
2022/03/31 06:33:34;;;;;;;27.45;15.63;;;5.50;99.90;;;;;;4980584;28;20030;-80
2022/03/31 06:36:00;;;;;;;33.88;15.90;;;5.50;99.90;;;;;;4977715;28;20041;-80
2022/03/31 06:38:25;;;;;;;33.83;16.50;;;5.50;99.90;;;;;;4997299;28;20034;-80
2022/03/31 06:41:06;;;;;;;30.15;16.83;;;5.50;99.90;;;;;;5011549;28;20545;-80
2022/03/31 06:43:35;;;;;;;30.75;16.73;;;5.60;99.90;;;;;;4981900;28;20505;-80
2022/03/31 06:46:01;;;;;;;29.70;16.30;;;5.60;99.90;;;;;;4994608;28;20034;-80
2022/03/31 06:48:26;;;;;;;32.83;15.77;;;5.60;99.90;;;;;;4997593;28;20079;-80
2022/03/31 06:50:52;;;;;;;34.63;15.93;;;5.60;99.90;;;;;;4992605;28;20082;-81
2022/03/31 06:53:18;;;;;;;29.30;16.42;;;5.60;99.90;;;;;;4994845;28;20036;-80
2022/03/31 06:55:44;;;;;;;28.95;15.82;;;5.60;99.90;;;;;;4977117;28;20449;-80
2022/03/31 06:58:09;;;;;;;31.83;16.38;;;5.70;99.90;;;;;;4979362;28;20034;-79
2022/03/31 07:00:35;;;;;;;32.25;16.55;;;5.70;99.90;;;;;;4979756;28;20048;-79
2022/03/31 07:03:00;;;;;;;32.92;17.23;;;5.70;99.90;;;;;;4976246;28;20018;-79
2022/03/31 07:05:26;;;;;;;33.33;18.42;;;5.70;99.90;;;;;;4976953;28;20108;-79
2022/03/31 07:07:52;;;;;;;30.85;15.68;;;5.80;99.90;;;;;;4991498;28;20030;-79
2022/03/31 07:10:18;;;;;;;37.13;16.80;;;5.80;99.90;;;;;;4973800;28;20401;-81
2022/03/31 07:12:44;;;;;;;32.03;16.48;;;5.90;99.90;;;;;;4996794;28;20038;-80
2022/03/31 07:15:10;;;;;;;26.20;14.73;;;5.90;99.90;;;;;;4981091;28;20040;-82
2022/03/31 07:17:35;;;;;;;37.42;20.00;;;5.90;99.90;;;;;;4990825;28;20034;-80
2022/03/31 07:20:01;;;;;;;34.15;17.33;;;5.90;99.90;;;;;;4969412;28;20038;-79
2022/03/31 07:22:27;;;;;;;30.67;18.00;;;6.00;99.90;;;;;;4971651;28;20461;-79
2022/03/31 07:24:53;;;;;;;30.70;15.13;;;6.00;99.90;;;;;;4993156;28;20049;-79
2022/03/31 07:27:19;;;;;;;31.60;18.35;;;6.00;99.90;;;;;;4972526;28;20122;-80
2022/03/31 07:29:45;;;;;;;36.30;18.80;;;6.00;99.90;;;;;;4976251;28;20025;-80
2022/03/31 07:32:12;;;;;;;36.22;18.70;;;6.10;99.90;;;;;;4992265;28;20049;-80
2022/03/31 07:34:37;;;;;;;29.63;18.00;;;6.10;99.90;;;;;;4994626;28;20045;-79
2022/03/31 07:37:05;;;;;;;33.70;18.10;;;6.10;99.90;;;;;;4975529;28;20022;-80
2022/03/31 07:39:31;;;;;;;32.00;17.73;;;6.10;99.90;;;;;;4997277;28;20652;-79
2022/03/31 07:41:56;;;;;;;34.55;17.00;;;6.20;99.90;;;;;;4992947;28;20072;-80
2022/03/31 07:44:22;;;;;;;34.45;18.27;;;6.20;99.90;;;;;;5004425;28;20038;-79
2022/03/31 07:46:47;;;;;;;32.53;17.52;;;6.20;99.90;;;;;;4990751;28;20045;-79
2022/03/31 07:49:14;;;;;;;32.35;18.23;;;6.20;99.90;;;;;;5010607;28;20029;-80
2022/03/31 07:51:39;;;;;;;32.03;16.88;;;6.30;99.90;;;;;;4993935;28;20033;-79
2022/03/31 07:54:05;;;;;;;34.05;18.48;;;6.30;99.90;;;;;;4994078;28;20141;-79
2022/03/31 07:56:30;;;;;;;28.73;16.90;;;6.40;99.90;;;;;;4990724;28;20481;-79
2022/03/31 07:58:56;;;;;;;33.85;17.98;;;6.40;99.90;;;;;;4990506;28;20114;-79
2022/03/31 08:01:21;;;;;;;32.55;19.15;;;6.40;99.90;;;;;;4988840;28;20038;-80
2022/03/31 08:03:48;;;;;;;34.72;19.65;;;6.50;99.90;;;;;;4995845;28;20045;-80
2022/03/31 08:06:14;;;;;;;32.65;17.92;;;6.50;99.90;;;;;;4971681;28;20034;-80
2022/03/31 08:08:39;;;;;;;28.55;14.32;;;6.60;99.90;;;;;;4975368;28;20057;-80
2022/03/31 08:11:05;;;;;;;30.42;16.70;;;6.60;99.90;;;;;;5009389;28;20061;-80
2022/03/31 08:13:31;;;;;;;33.15;18.20;;;6.70;99.90;;;;;;5007683;28;20112;-80
2022/03/31 08:15:58;;;;;;;32.92;18.75;;;6.70;99.90;;;;;;4988656;28;20449;-80
2022/03/31 08:18:26;;;;;;;30.55;18.90;;;6.70;99.90;;;;;;4973888;28;20040;-80
2022/03/31 08:20:53;;;;;;;29.55;16.92;;;6.80;99.90;;;;;;4980481;28;20571;-80
2022/03/31 08:23:18;;;;;;;28.98;15.85;;;6.80;99.90;;;;;;5004189;28;20053;-80
2022/03/31 08:25:44;;;;;;;32.83;17.35;;;6.80;99.90;;;;;;4973242;28;20069;-79
2022/03/31 08:28:10;;;;;;;32.13;18.48;;;6.90;99.90;;;;;;4990890;28;20030;-79
2022/03/31 08:30:35;;;;;;;33.25;17.55;;;6.90;99.90;;;;;;4998246;28;20120;-79
2022/03/31 08:33:01;;;;;;;31.65;17.45;;;7.00;99.90;;;;;;4975252;28;20025;-79
2022/03/31 08:35:28;;;;;;;33.50;18.23;;;7.10;99.90;;;;;;4993349;28;20083;-79
2022/03/31 08:37:54;;;;;;;35.72;19.65;;;7.10;99.90;;;;;;4994084;28;20544;-79
2022/03/31 08:40:19;;;;;;;35.08;21.75;;;7.20;99.90;;;;;;4991835;28;20164;-79
2022/03/31 08:42:45;;;;;;;32.78;18.05;;;7.30;99.90;;;;;;4991502;28;20095;-79
2022/03/31 08:45:12;;;;;;;32.65;18.48;;;7.40;99.90;;;;;;4972974;28;20044;-79
2022/03/31 08:47:39;;;;;;;32.28;17.30;;;7.50;99.90;;;;;;4990675;28;20038;-79
2022/03/31 08:50:05;;;;;;;31.35;19.10;;;7.50;99.90;;;;;;4976093;28;20037;-79
2022/03/31 08:52:30;;;;;;;32.63;17.77;;;7.70;99.90;;;;;;4990113;28;20030;-80
2022/03/31 08:54:56;;;;;;;32.47;18.20;;;7.70;99.90;;;;;;4975884;28;20099;-80
2022/03/31 08:57:21;;;;;;;23.70;15.32;;;7.80;99.90;;;;;;5001535;28;20441;-80
2022/03/31 08:59:47;;;;;;;27.50;17.88;;;7.80;99.90;;;;;;4991546;28;20029;-80
2022/03/31 09:02:25;;;;;;;33.78;18.02;;;7.90;99.90;;;;;;4974440;28;20057;-80
2022/03/31 09:05:04;;;;;;;35.00;19.15;;;8.10;99.90;;;;;;4985048;28;20087;-80
2022/03/31 09:07:29;;;;;;;30.05;16.05;;;8.20;99.90;;;;;;4969616;28;20429;-81
2022/03/31 09:09:55;;;;;;;26.35;14.55;;;8.40;99.90;;;;;;4975914;28;20421;-81
2022/03/31 09:12:23;;;;;;;31.92;16.38;;;8.50;99.90;;;;;;5000900;28;20026;-80
2022/03/31 09:14:48;;;;;;;22.77;12.52;;;8.70;99.90;;;;;;4974600;28;20018;-80
2022/03/31 09:17:15;;;;;;;28.60;15.43;;;8.70;99.90;;;;;;4992341;28;20565;-80
2022/03/31 09:19:41;;;;;;;28.08;17.85;;;8.80;99.90;;;;;;4991618;28;20498;-80
2022/03/31 09:22:06;;;;;;;27.42;16.25;;;9.00;99.90;;;;;;4989357;28;20061;-81
2022/03/31 09:24:32;;;;;;;31.25;17.63;;;9.10;99.90;;;;;;4972152;28;20393;-80
2022/03/31 09:26:58;;;;;;;25.17;15.02;;;9.20;99.90;;;;;;4972845;28;20069;-81
2022/03/31 09:29:25;;;;;;;30.73;15.35;;;9.30;99.90;;;;;;4973781;28;20041;-81
2022/03/31 09:31:53;;;;;;;25.13;14.75;;;9.30;99.90;;;;;;4992073;28;20572;-81
2022/03/31 09:34:19;;;;;;;24.83;14.32;;;9.30;99.90;;;;;;4990622;28;20396;-81
2022/03/31 09:36:49;;;;;;;25.40;13.57;;;9.20;99.90;;;;;;4976753;28;20029;-81
2022/03/31 09:39:17;;;;;;;20.63;12.93;;;9.20;99.90;;;;;;4987208;28;20037;-81
2022/03/31 09:41:44;;;;;;;22.00;12.88;;;9.40;99.90;;;;;;4973701;28;20096;-81
2022/03/31 09:44:19;;;;;;;20.65;13.25;;;9.30;99.90;;;;;;4973714;28;20030;-81
2022/03/31 09:46:45;;;;;;;23.27;13.85;;;9.10;99.90;;;;;;4971424;28;20504;-81
2022/03/31 09:49:19;;;;;;;24.65;13.95;;;9.30;99.90;;;;;;4971303;28;20088;-81
2022/03/31 09:51:49;;;;;;;25.13;14.45;;;9.40;99.90;;;;;;4987833;28;20117;-80
2022/03/31 09:54:15;;;;;;;23.20;14.40;;;9.40;99.90;;;;;;5003375;28;20188;-81
2022/03/31 09:56:40;;;;;;;26.00;13.75;;;9.50;99.90;;;;;;4979323;28;20125;-80
2022/03/31 09:59:07;;;;;;;27.50;15.75;;;9.50;99.90;;;;;;4973083;28;20065;-80
2022/03/31 10:01:33;;;;;;;24.95;14.07;;;9.50;99.90;;;;;;4976234;28;20046;-81
2022/03/31 10:03:59;;;;;;;22.38;13.40;;;9.40;99.90;;;;;;4975547;28;20050;-81
2022/03/31 10:06:25;;;;;;;19.70;13.85;;;9.40;99.90;;;;;;5005432;28;20030;-80
2022/03/31 10:08:50;;;;;;;26.42;14.57;;;9.30;99.90;;;;;;4980690;28;20033;-80
2022/03/31 10:11:19;;;;;;;19.23;12.65;;;9.30;99.90;;;;;;4990806;28;20046;-80
2022/03/31 10:14:17;;;;;;;23.33;14.80;;;9.20;99.90;;;;;;5001312;28;20398;-81
2022/03/31 10:16:48;;;;;;;20.00;14.10;;;9.20;99.90;;;;;;4988444;28;20034;-81
2022/03/31 10:19:35;;;;;;;23.40;15.07;;;9.10;99.90;;;;;;4978694;28;20034;-81
2022/03/31 10:24:41;;;;;;;24.55;14.30;;;8.90;99.90;;;;;;4987244;28;20092;-81
2022/03/31 10:24:58;;;;;;;;;;;8.90;99.90;;;;;;5004965;28;20553;-81
2022/03/31 10:27:28;;;;;;;21.00;13.80;;;8.80;99.90;;;;;;4986523;28;20000;-81
2022/03/31 10:29:55;;;;;;;24.30;14.55;;;8.70;99.90;;;;;;4979017;28;20482;-81
2022/03/31 10:32:23;;;;;;;25.85;14.20;;;8.70;99.90;;;;;;4996503;28;20034;-80
2022/03/31 10:34:54;;;;;;;23.55;14.90;;;8.70;99.90;;;;;;4990582;28;20043;-79
2022/03/31 10:37:36;;;;;;;24.35;15.18;;;8.70;99.90;;;;;;4987963;28;20041;-81
2022/03/31 10:40:07;;;;;;;26.48;15.48;;;8.70;99.90;;;;;;4992990;28;20038;-81
2022/03/31 10:42:34;;;;;;;26.52;15.50;;;8.80;99.90;;;;;;4993622;28;20511;-81
2022/03/31 10:45:09;;;;;;;21.08;13.50;;;8.80;99.90;;;;;;4984562;28;20040;-81
2022/03/31 10:47:36;;;;;;;24.63;14.82;;;8.70;99.90;;;;;;5014625;28;20065;-81
2022/03/31 10:50:01;;;;;;;23.67;14.57;;;8.70;99.90;;;;;;4990134;28;20025;-81
2022/03/31 10:52:28;;;;;;;22.83;14.98;;;8.80;99.90;;;;;;4994108;28;20040;-81
2022/03/31 10:55:07;;;;;;;24.55;14.02;;;8.70;99.90;;;;;;4977078;28;20032;-81
2022/03/31 10:57:43;;;;;;;25.77;15.63;;;8.70;99.90;;;;;;4977693;28;20034;-81
2022/03/31 11:00:11;;;;;;;23.35;14.23;;;8.70;99.90;;;;;;4975041;28;20045;-79
2022/03/31 11:02:43;;;;;;;22.95;14.73;;;8.70;99.90;;;;;;4974515;28;20030;-79
2022/03/31 11:05:09;;;;;;;30.05;15.38;;;8.70;99.90;;;;;;4976580;28;20038;-79
2022/03/31 11:07:34;;;;;;;24.48;15.63;;;8.70;99.90;;;;;;4993647;28;20042;-81
2022/03/31 11:10:13;;;;;;;24.70;14.52;;;8.60;99.90;;;;;;4978067;28;20477;-82
2022/03/31 11:12:38;;;;;;;26.42;15.23;;;8.60;99.90;;;;;;5005189;28;20029;-81
2022/03/31 11:15:11;;;;;;;34.85;17.73;;;8.60;99.90;;;;;;4975842;28;20029;-81
2022/03/31 11:17:38;;;;;;;28.08;16.95;;;8.60;99.90;;;;;;4978970;28;20030;-79
2022/03/31 11:20:13;;;;;;;26.23;16.23;;;8.60;99.90;;;;;;4975941;28;20057;-79
2022/03/31 11:22:48;;;;;;;24.50;16.25;;;8.60;99.90;;;;;;4976278;28;20418;-81
2022/03/31 11:25:15;;;;;;;29.27;16.25;;;8.60;99.90;;;;;;4989847;28;20030;-81
2022/03/31 11:27:41;;;;;;;27.75;16.77;;;8.60;99.90;;;;;;4990911;28;20061;-81
2022/03/31 11:30:11;;;;;;;38.63;19.23;;;8.70;99.90;;;;;;4988188;28;20022;-81
2022/03/31 11:32:38;;;;;;;29.92;18.40;;;8.70;99.90;;;;;;4989990;28;20026;-79
2022/03/31 11:35:08;;;;;;;29.10;18.73;;;8.60;99.90;;;;;;4990023;28;20034;-79
2022/03/31 11:37:34;;;;;;;26.75;17.73;;;8.60;99.90;;;;;;4998596;28;20196;-79
2022/03/31 11:39:59;;;;;;;26.92;16.73;;;8.60;99.90;;;;;;4975844;28;20399;-81
2022/03/31 11:42:25;;;;;;;30.23;17.20;;;8.60;99.90;;;;;;4976372;28;20405;-81
2022/03/31 11:44:51;;;;;;;29.75;18.40;;;8.60;99.90;;;;;;4979310;28;20032;-80
2022/03/31 11:47:20;;;;;;;34.70;20.35;;;8.60;99.90;;;;;;4991498;28;20026;-81
2022/03/31 11:49:56;;;;;;;38.05;21.40;;;8.60;99.90;;;;;;4988681;28;20025;-80
2022/03/31 11:52:28;;;;;;;32.03;20.55;;;8.70;99.90;;;;;;4997958;28;20034;-81
2022/03/31 11:54:58;;;;;;;38.72;22.00;;;8.70;99.90;;;;;;4991682;28;20061;-80
2022/03/31 11:57:23;;;;;;;39.20;22.35;;;8.80;99.90;;;;;;4968989;28;20042;-80
2022/03/31 11:59:50;;;;;;;39.75;22.95;;;8.80;99.90;;;;;;4974612;28;20513;-80
2022/03/31 12:02:16;;;;;;;39.60;24.73;;;8.80;99.90;;;;;;5009963;28;20029;-80
2022/03/31 12:04:44;;;;;;;42.55;23.75;;;8.90;99.90;;;;;;4993509;28;20489;-81
2022/03/31 12:07:10;;;;;;;42.40;24.25;;;9.00;99.90;;;;;;4989876;28;21285;-80
2022/03/31 12:09:41;;;;;;;45.13;25.98;;;9.10;99.90;;;;;;4290096;28;10001238;-80
2022/03/31 12:12:13;;;;;;;44.80;25.15;;;9.20;99.90;;;;;;4972209;28;20085;-80
2022/03/31 12:14:39;;;;;;;44.22;26.00;;;9.40;99.90;;;;;;4970947;28;20430;-80
2022/03/31 12:17:07;;;;;;;46.15;25.02;;;9.50;99.90;;;;;;4972325;28;20026;-81
2022/03/31 12:19:37;;;;;;;39.80;23.10;;;9.60;99.90;;;;;;4993323;28;20116;-82
2022/03/31 12:22:03;;;;;;;47.03;25.38;;;9.70;99.90;;;;;;4972407;28;20045;-81
2022/03/31 12:24:28;;;;;;;40.00;24.13;;;9.90;99.90;;;;;;4990785;28;20044;-82
2022/03/31 12:26:55;;;;;;;53.80;27.35;;;9.90;99.90;;;;;;4973061;28;20153;-82
2022/03/31 12:29:21;;;;;;;45.83;25.33;;;9.90;99.90;;;;;;4973994;28;20040;-81
2022/03/31 12:31:48;;;;;;;43.05;26.58;;;10.00;99.90;;;;;;4975375;28;20091;-82
2022/03/31 12:34:13;;;;;;;40.15;22.02;;;10.00;99.90;;;;;;4989735;28;20080;-80
2022/03/31 12:36:40;;;;;;;49.38;26.25;;;9.90;99.90;;;;;;4988417;28;20121;-80
2022/03/31 12:39:08;;;;;;;39.63;24.73;;;10.00;99.90;;;;;;4991324;28;20061;-81